createdAt,value
2019-05-20T00:01:14.452Z,15.00
2019-05-20T00:03:43.816Z,15.00
2019-05-20T00:06:13.262Z,14.80
2019-05-20T00:08:42.603Z,14.80
2019-05-20T00:11:12.009Z,14.70
2019-05-20T00:13:41.462Z,14.70
2019-05-20T00:16:10.942Z,14.70
2019-05-20T00:18:40.374Z,14.80
2019-05-20T00:21:10.208Z,14.70
2019-05-20T00:23:39.658Z,14.70
2019-05-20T00:26:09.014Z,14.70
2019-05-20T00:28:38.432Z,14.70
2019-05-20T00:31:07.817Z,14.60
2019-05-20T00:33:37.276Z,14.60
2019-05-20T00:36:06.641Z,14.50
2019-05-20T00:38:36.088Z,14.50
2019-05-20T00:41:05.450Z,14.50
2019-05-20T00:43:34.866Z,14.50
2019-05-20T00:46:04.326Z,14.50
2019-05-20T00:48:33.756Z,14.50
2019-05-20T00:51:03.122Z,14.50
2019-05-20T00:53:32.550Z,14.50
2019-05-20T00:56:01.855Z,14.50
2019-05-20T00:58:31.186Z,14.40
2019-05-20T01:01:00.556Z,14.50
2019-05-20T01:03:29.928Z,14.40
2019-05-20T01:05:59.364Z,14.40
2019-05-20T01:08:28.772Z,14.30
2019-05-20T01:10:58.248Z,14.40
2019-05-20T01:13:27.641Z,14.40
2019-05-20T01:15:57.069Z,14.30
2019-05-20T01:18:26.475Z,14.30
2019-05-20T01:20:56.717Z,14.30
2019-05-20T01:23:26.195Z,14.30
2019-05-20T01:25:55.650Z,14.20
2019-05-20T01:28:25.038Z,14.10
2019-05-20T01:30:54.423Z,14.20
2019-05-20T01:33:23.889Z,14.20
2019-05-20T01:35:53.343Z,14.10
2019-05-20T01:38:22.711Z,14.20
2019-05-20T01:40:52.025Z,14.10
2019-05-20T01:43:21.407Z,14.10
2019-05-20T01:45:50.759Z,14.10
2019-05-20T01:48:20.161Z,14.10
2019-05-20T01:50:49.585Z,14.10
2019-05-20T01:53:19.068Z,14.00
2019-05-20T01:55:48.493Z,14.00
2019-05-20T01:58:17.829Z,14.10
2019-05-20T02:00:47.229Z,14.10
2019-05-20T02:03:30.437Z,13.90
2019-05-20T02:05:47.679Z,13.90
2019-05-20T02:08:17.121Z,13.90
2019-05-20T02:10:46.457Z,13.90
2019-05-20T02:13:15.865Z,13.90
2019-05-20T02:15:51.555Z,13.90
2019-05-20T02:18:20.962Z,13.90
2019-05-20T02:20:50.408Z,13.80
2019-05-20T02:23:19.837Z,13.80
2019-05-20T02:25:51.255Z,13.90
2019-05-20T02:28:20.660Z,13.80
2019-05-20T02:30:50.077Z,13.80
2019-05-20T02:33:19.459Z,13.80
2019-05-20T02:35:48.916Z,13.70
2019-05-20T02:38:18.242Z,13.80
2019-05-20T02:40:47.740Z,13.80
2019-05-20T02:43:17.083Z,13.70
2019-05-20T02:45:46.418Z,13.70
2019-05-20T02:48:15.892Z,13.60
2019-05-20T02:50:45.304Z,13.60
2019-05-20T02:53:14.744Z,13.60
2019-05-20T02:55:44.387Z,13.60
2019-05-20T02:58:13.790Z,13.60
2019-05-20T03:00:43.250Z,13.50
2019-05-20T03:03:12.636Z,13.50
2019-05-20T03:05:42.084Z,13.40
2019-05-20T03:08:11.462Z,13.40
2019-05-20T03:10:40.818Z,13.30
2019-05-20T03:13:10.237Z,13.30
2019-05-20T03:15:39.642Z,13.30
2019-05-20T03:18:08.992Z,13.30
2019-05-20T03:20:38.343Z,13.30
2019-05-20T03:23:07.754Z,13.40
2019-05-20T03:25:37.203Z,13.40
2019-05-20T03:28:06.523Z,13.40
2019-05-20T03:30:35.894Z,13.40
2019-05-20T03:33:05.273Z,13.40
2019-05-20T03:35:34.695Z,13.40
2019-05-20T03:38:04.126Z,13.40
2019-05-20T03:40:33.550Z,13.40
2019-05-20T03:43:02.984Z,13.40
2019-05-20T03:45:32.408Z,13.40
2019-05-20T03:48:01.781Z,13.50
2019-05-20T03:50:31.284Z,13.50
2019-05-20T03:53:00.668Z,13.50
2019-05-20T03:55:30.050Z,13.50
2019-05-20T03:57:59.468Z,13.50
2019-05-20T04:00:57.018Z,13.50
2019-05-20T04:03:26.412Z,13.50
2019-05-20T04:05:55.843Z,13.60
2019-05-20T04:08:25.221Z,13.60
2019-05-20T04:10:54.797Z,13.60
2019-05-20T04:13:24.191Z,13.60
2019-05-20T04:15:53.606Z,13.60
2019-05-20T04:18:22.981Z,13.60
2019-05-20T04:20:52.442Z,13.60
2019-05-20T04:23:22.050Z,13.70
2019-05-20T04:25:51.463Z,13.70
2019-05-20T04:28:20.903Z,13.70
2019-05-20T04:30:50.381Z,13.70
2019-05-20T04:33:19.808Z,13.70
2019-05-20T04:35:50.005Z,13.80
2019-05-20T04:38:19.423Z,13.70
2019-05-20T04:40:48.808Z,13.70
2019-05-20T04:43:18.277Z,13.70
2019-05-20T04:45:47.713Z,13.70
2019-05-20T04:48:17.152Z,13.70
2019-05-20T04:50:46.490Z,13.90
2019-05-20T04:53:15.955Z,13.90
2019-05-20T04:55:45.675Z,14.00
2019-05-20T04:58:15.167Z,13.90
2019-05-20T05:00:55.364Z,14.00
2019-05-20T05:03:24.855Z,14.10
2019-05-20T05:05:54.479Z,14.20
2019-05-20T05:08:24.061Z,14.30
2019-05-20T05:10:53.643Z,14.30
2019-05-20T05:13:23.796Z,14.40
2019-05-20T05:15:53.273Z,14.30
2019-05-20T05:18:23.011Z,14.30
2019-05-20T05:20:52.521Z,14.40
2019-05-20T05:23:22.446Z,14.50
2019-05-20T05:25:51.746Z,14.60
2019-05-20T05:28:21.178Z,14.50
2019-05-20T05:30:50.654Z,14.70
2019-05-20T05:33:19.998Z,14.50
2019-05-20T05:35:53.210Z,14.50
2019-05-20T05:38:20.581Z,14.60
2019-05-20T05:40:49.918Z,14.60
2019-05-20T05:43:19.303Z,14.70
2019-05-20T05:45:48.775Z,14.70
2019-05-20T05:48:18.187Z,14.90
2019-05-20T05:50:47.559Z,14.90
2019-05-20T05:53:16.975Z,15.10
2019-05-20T05:55:46.377Z,15.10
2019-05-20T05:58:15.754Z,15.20
2019-05-20T06:00:45.153Z,15.20
2019-05-20T06:03:14.537Z,15.40
2019-05-20T06:05:43.871Z,15.60
2019-05-20T06:08:13.324Z,15.60
2019-05-20T06:10:42.661Z,15.80
2019-05-20T06:13:12.085Z,16.10
2019-05-20T06:15:41.475Z,15.90
2019-05-20T06:18:10.871Z,15.70
2019-05-20T06:20:40.234Z,15.70
2019-05-20T06:23:09.719Z,15.90
2019-05-20T06:25:39.162Z,16.00
2019-05-20T06:28:08.542Z,16.10
2019-05-20T06:30:40.404Z,16.20
2019-05-20T06:33:09.831Z,16.60
2019-05-20T06:35:39.225Z,16.60
2019-05-20T06:38:12.676Z,16.20
2019-05-20T06:40:42.111Z,16.30
2019-05-20T06:43:11.506Z,16.20
2019-05-20T06:45:40.808Z,16.10
2019-05-20T06:48:10.129Z,16.30
2019-05-20T06:50:39.481Z,16.30
2019-05-20T06:53:08.881Z,16.60
2019-05-20T06:55:38.189Z,16.60
2019-05-20T06:58:07.510Z,16.90
2019-05-20T07:00:38.597Z,16.70
2019-05-20T07:03:08.215Z,16.90
2019-05-20T07:05:37.613Z,16.90
2019-05-20T07:08:06.958Z,16.70
2019-05-20T07:10:36.313Z,16.50
2019-05-20T07:13:05.712Z,16.60
2019-05-20T07:15:35.073Z,16.60
2019-05-20T07:18:04.636Z,16.50
2019-05-20T07:20:34.015Z,16.40
2019-05-20T07:23:03.449Z,16.40
2019-05-20T07:25:32.836Z,16.30
2019-05-20T07:28:02.194Z,16.40
2019-05-20T07:30:31.722Z,15.90
2019-05-20T07:33:01.232Z,15.90
2019-05-20T07:35:31.226Z,16.20
2019-05-20T07:38:00.880Z,16.40
2019-05-20T07:40:34.279Z,16.40
2019-05-20T07:43:04.514Z,16.70
2019-05-20T07:45:36.162Z,16.70
2019-05-20T07:48:06.658Z,16.40
2019-05-20T07:50:39.709Z,16.70
2019-05-20T07:53:11.712Z,16.70
2019-05-20T07:55:47.397Z,16.90
2019-05-20T07:58:19.254Z,17.10
2019-05-20T08:00:48.764Z,17.20
2019-05-20T08:03:18.160Z,17.30
2019-05-20T08:05:47.516Z,17.50
2019-05-20T08:08:16.879Z,17.40
2019-05-20T08:10:46.481Z,17.50
2019-05-20T08:13:15.861Z,17.30
2019-05-20T08:15:45.228Z,17.30
2019-05-20T08:18:14.630Z,16.60
2019-05-20T08:20:44.102Z,16.50
2019-05-20T08:23:13.638Z,16.40
2019-05-20T08:25:43.085Z,16.60
2019-05-20T08:28:12.564Z,16.50
2019-05-20T08:30:41.938Z,16.70
2019-05-20T08:33:11.320Z,16.70
2019-05-20T08:35:40.697Z,16.70
2019-05-20T08:38:10.132Z,17.00
2019-05-20T08:40:39.472Z,16.90
2019-05-20T08:43:08.806Z,17.30
2019-05-20T08:45:38.206Z,17.60
2019-05-20T08:48:07.606Z,17.80
2019-05-20T08:50:36.970Z,17.70
2019-05-20T08:53:06.227Z,17.60
2019-05-20T08:55:35.736Z,17.50
2019-05-20T08:58:05.159Z,17.50
2019-05-20T09:00:34.574Z,17.40
2019-05-20T09:03:03.903Z,17.30
2019-05-20T09:05:33.380Z,17.10
2019-05-20T09:08:04.130Z,17.20
2019-05-20T09:10:33.640Z,17.30
2019-05-20T09:13:02.979Z,17.10
2019-05-20T09:15:32.590Z,16.60
2019-05-20T09:18:02.274Z,16.60
2019-05-20T09:20:31.664Z,16.40
2019-05-20T09:23:02.801Z,16.60
2019-05-20T09:25:33.078Z,16.80
2019-05-20T09:28:02.631Z,17.00
2019-05-20T09:30:32.074Z,16.90
2019-05-20T09:33:01.511Z,17.00
2019-05-20T09:35:30.958Z,17.10
2019-05-20T09:38:00.437Z,17.20
2019-05-20T09:40:40.853Z,17.20
2019-05-20T09:43:10.383Z,17.30
2019-05-20T09:45:39.747Z,17.30
2019-05-20T09:48:09.586Z,17.50
2019-05-20T09:50:39.328Z,17.60
2019-05-20T09:53:09.167Z,17.80
2019-05-20T09:55:38.597Z,17.70
2019-05-20T09:58:08.215Z,17.90
2019-05-20T10:00:37.677Z,18.10
2019-05-20T10:03:07.757Z,18.30
2019-05-20T10:05:37.895Z,17.40
2019-05-20T10:08:07.660Z,17.40
2019-05-20T10:10:37.473Z,17.80
2019-05-20T10:13:07.996Z,18.00
2019-05-20T10:15:37.825Z,18.30
2019-05-20T10:18:07.164Z,18.20
2019-05-20T10:20:36.549Z,18.30
2019-05-20T10:23:05.952Z,18.40
2019-05-20T10:25:35.382Z,18.20
2019-05-20T10:28:04.785Z,18.00
2019-05-20T10:30:35.077Z,18.00
2019-05-20T10:33:09.314Z,18.10
2019-05-20T10:35:35.728Z,18.00
2019-05-20T10:38:05.490Z,18.30
2019-05-20T10:40:34.928Z,18.20
2019-05-20T10:43:04.432Z,18.00
2019-05-20T10:45:34.665Z,17.90
2019-05-20T10:48:05.313Z,17.80
2019-05-20T10:50:35.136Z,17.50
2019-05-20T10:53:04.632Z,17.70
2019-05-20T10:55:34.050Z,17.80
2019-05-20T10:58:03.428Z,17.90
2019-05-20T11:00:32.883Z,18.10
2019-05-20T11:03:02.407Z,18.20
2019-05-20T11:05:32.100Z,18.30
2019-05-20T11:08:01.452Z,18.10
2019-05-20T11:10:30.932Z,18.40
2019-05-20T11:13:00.653Z,18.30
2019-05-20T11:15:29.982Z,18.30
2019-05-20T11:17:59.380Z,18.30
2019-05-20T11:20:28.768Z,18.10
2019-05-20T11:23:00.997Z,18.20
2019-05-20T11:25:29.202Z,18.40
2019-05-20T11:27:58.575Z,18.30
2019-05-20T11:30:28.048Z,18.40
2019-05-20T11:32:57.427Z,18.70
2019-05-20T11:35:26.786Z,18.80
2019-05-20T11:37:56.170Z,18.80
2019-05-20T11:40:25.592Z,19.00
2019-05-20T11:42:54.966Z,18.90
2019-05-20T11:45:24.382Z,18.80
2019-05-20T11:47:53.805Z,18.80
2019-05-20T11:50:23.225Z,18.70
2019-05-20T11:52:52.711Z,18.80
2019-05-20T11:55:22.163Z,18.70
2019-05-20T11:57:51.558Z,18.70
2019-05-20T12:00:21.043Z,18.80
2019-05-20T12:02:51.251Z,19.20
2019-05-20T12:05:20.703Z,18.90
2019-05-20T12:07:50.176Z,18.90
2019-05-20T12:10:19.772Z,19.00
2019-05-20T12:12:49.156Z,19.30
2019-05-20T12:15:18.972Z,19.50
2019-05-20T12:17:48.407Z,19.60
2019-05-20T12:20:18.192Z,19.50
2019-05-20T12:22:47.512Z,19.40
2019-05-20T12:25:17.015Z,19.30
2019-05-20T12:27:46.310Z,19.30
2019-05-20T12:30:16.464Z,19.20
2019-05-20T12:32:45.859Z,19.30
2019-05-20T12:35:15.468Z,19.30
2019-05-20T12:37:45.796Z,19.50
2019-05-20T12:40:15.587Z,19.70
2019-05-20T12:42:44.953Z,19.70
2019-05-20T12:45:14.378Z,19.80
2019-05-20T12:47:43.803Z,19.40
2019-05-20T12:50:13.655Z,18.70
2019-05-20T12:52:43.090Z,18.70
2019-05-20T12:55:12.660Z,18.70
2019-05-20T12:57:42.083Z,18.60
2019-05-20T13:00:12.517Z,18.40
2019-05-20T13:02:42.082Z,18.20
2019-05-20T13:05:12.139Z,17.70
2019-05-20T13:07:41.648Z,16.70
2019-05-20T13:10:27.877Z,16.00
2019-05-20T13:12:43.995Z,15.60
2019-05-20T13:15:13.843Z,15.20
2019-05-20T13:17:45.050Z,14.70
2019-05-20T13:20:14.424Z,14.10
2019-05-20T13:22:43.778Z,13.80
2019-05-20T13:25:13.326Z,13.70
2019-05-20T13:27:42.723Z,13.70
2019-05-20T13:30:12.516Z,13.70
2019-05-20T13:32:41.901Z,13.70
2019-05-20T13:35:11.680Z,13.70
2019-05-20T13:37:41.174Z,13.70
2019-05-20T13:40:10.787Z,13.70
2019-05-20T13:42:40.208Z,13.70
2019-05-20T13:45:10.214Z,13.80
2019-05-20T13:47:39.641Z,13.80
2019-05-20T13:50:10.868Z,13.80
2019-05-20T13:52:40.205Z,13.70
2019-05-20T13:55:10.076Z,13.60
2019-05-20T13:57:39.571Z,13.50
2019-05-20T14:00:09.764Z,13.50
2019-05-20T14:02:39.165Z,13.50
2019-05-20T14:05:08.679Z,13.50
2019-05-20T14:07:38.093Z,13.50
2019-05-20T14:10:07.966Z,13.60
2019-05-20T14:12:37.348Z,13.60
2019-05-20T14:15:07.123Z,13.60
2019-05-20T14:17:36.478Z,13.60
2019-05-20T14:20:06.477Z,13.50
2019-05-20T14:22:35.851Z,13.30
2019-05-20T14:25:05.566Z,13.30
2019-05-20T14:27:34.997Z,13.40
2019-05-20T14:30:04.930Z,13.50
2019-05-20T14:32:34.362Z,13.60
2019-05-20T14:35:03.862Z,13.60
2019-05-20T14:37:33.276Z,13.70
2019-05-20T14:40:02.726Z,13.80
2019-05-20T14:42:32.182Z,13.80
2019-05-20T14:45:01.592Z,13.80
2019-05-20T14:47:31.143Z,13.90
2019-05-20T14:50:00.663Z,13.90
2019-05-20T14:52:30.200Z,14.00
2019-05-20T14:54:59.761Z,14.00
2019-05-20T14:57:29.242Z,14.10
2019-05-20T14:59:58.578Z,14.20
2019-05-20T15:02:30.900Z,14.30
2019-05-20T15:04:59.261Z,14.30
2019-05-20T15:07:31.458Z,14.20
2019-05-20T15:10:01.013Z,14.10
2019-05-20T15:12:30.400Z,14.10
2019-05-20T15:15:00.009Z,14.30
2019-05-20T15:17:29.529Z,14.30
2019-05-20T15:19:59.053Z,14.30
2019-05-20T15:22:28.706Z,14.30
2019-05-20T15:24:58.128Z,14.30
2019-05-20T15:27:28.191Z,14.30
2019-05-20T15:29:57.656Z,14.20
2019-05-20T15:32:27.074Z,14.10
2019-05-20T15:34:56.601Z,14.10
2019-05-20T15:37:26.066Z,14.00
2019-05-20T15:39:55.669Z,14.00
2019-05-20T15:42:25.066Z,13.80
2019-05-20T15:44:54.634Z,13.80
2019-05-20T15:47:24.038Z,13.60
2019-05-20T15:49:53.581Z,13.70
2019-05-20T15:52:22.987Z,13.60
2019-05-20T15:54:52.456Z,13.40
2019-05-20T15:57:22.019Z,13.40
2019-05-20T15:59:51.432Z,13.40
2019-05-20T16:02:23.494Z,13.40
2019-05-20T16:04:53.644Z,13.50
2019-05-20T16:07:23.804Z,13.60
2019-05-20T16:09:53.336Z,13.60
2019-05-20T16:12:22.803Z,13.70
2019-05-20T16:14:52.285Z,13.70
2019-05-20T16:17:21.680Z,13.80
2019-05-20T16:19:51.090Z,13.80
2019-05-20T16:22:20.484Z,13.90
2019-05-20T16:24:50.322Z,13.80
2019-05-20T16:27:19.844Z,13.90
2019-05-20T16:30:05.441Z,13.80
2019-05-20T16:32:20.588Z,13.90
2019-05-20T16:34:50.079Z,13.80
2019-05-20T16:37:19.511Z,13.80
2019-05-20T16:39:48.993Z,13.80
2019-05-20T16:42:18.525Z,13.80
2019-05-20T16:44:47.906Z,13.80
2019-05-20T16:47:17.354Z,13.80
2019-05-20T16:49:46.818Z,13.80
2019-05-20T16:52:16.307Z,13.70
2019-05-20T16:54:45.723Z,13.80
2019-05-20T16:57:15.140Z,13.80
2019-05-20T16:59:44.469Z,13.80
2019-05-20T17:02:13.976Z,13.80
2019-05-20T17:04:43.376Z,13.70
2019-05-20T17:07:12.856Z,13.70
2019-05-20T17:09:42.212Z,13.60
2019-05-20T17:12:11.734Z,13.60
2019-05-20T17:14:41.130Z,13.60
2019-05-20T17:17:10.576Z,13.50
2019-05-20T17:19:39.981Z,13.50
2019-05-20T17:22:09.510Z,13.50
2019-05-20T17:24:39.126Z,13.50
2019-05-20T17:27:08.653Z,13.40
2019-05-20T17:29:38.195Z,13.40
2019-05-20T17:32:07.707Z,13.40
2019-05-20T17:34:37.232Z,13.40
2019-05-20T17:37:06.651Z,13.40
2019-05-20T17:39:36.305Z,13.40
2019-05-20T17:42:05.838Z,13.40
2019-05-20T17:44:35.354Z,13.40
2019-05-20T17:47:05.121Z,13.50
2019-05-20T17:49:34.553Z,13.40
2019-05-20T17:52:03.991Z,13.40
2019-05-20T17:54:33.498Z,13.40
2019-05-20T17:57:03.079Z,13.40
2019-05-20T17:59:32.577Z,13.40
2019-05-20T18:02:01.929Z,13.40
2019-05-20T18:04:31.436Z,13.40
2019-05-20T18:07:00.979Z,13.40
2019-05-20T18:09:31.988Z,13.40
2019-05-20T18:12:06.246Z,13.40
2019-05-20T18:14:35.686Z,13.40
2019-05-20T18:17:05.149Z,13.40
2019-05-20T18:19:34.540Z,13.40
2019-05-20T18:22:04.289Z,13.40
2019-05-20T18:24:33.656Z,13.40
2019-05-20T18:27:03.498Z,13.30
2019-05-20T18:29:32.952Z,13.30
2019-05-20T18:32:02.425Z,13.30
2019-05-20T18:34:31.911Z,13.30
2019-05-20T18:37:01.319Z,13.20
2019-05-20T18:39:30.731Z,13.20
2019-05-20T18:42:00.224Z,13.10
2019-05-20T18:44:29.698Z,13.10
2019-05-20T18:46:59.149Z,13.10
2019-05-20T18:49:28.544Z,13.00
2019-05-20T18:51:58.016Z,13.00
2019-05-20T18:54:27.434Z,12.90
2019-05-20T18:56:56.910Z,12.90
2019-05-20T18:59:26.309Z,12.90
2019-05-20T19:02:04.688Z,12.80
2019-05-20T19:04:26.851Z,12.70
2019-05-20T19:06:56.415Z,12.70
2019-05-20T19:09:25.917Z,12.70
2019-05-20T19:11:55.392Z,12.70
2019-05-20T19:14:25.690Z,12.60
2019-05-20T19:16:55.143Z,12.60
2019-05-20T19:19:24.578Z,12.60
2019-05-20T19:21:54.001Z,12.60
2019-05-20T19:24:23.504Z,12.60
2019-05-20T19:26:52.995Z,12.60
2019-05-20T19:29:22.383Z,12.60
2019-05-20T19:32:01.431Z,12.60
2019-05-20T19:34:22.932Z,12.60
2019-05-20T19:36:52.257Z,12.60
2019-05-20T19:39:21.675Z,12.60
2019-05-20T19:41:51.005Z,12.70
2019-05-20T19:44:20.474Z,12.70
2019-05-20T19:46:49.817Z,12.70
2019-05-20T19:49:19.229Z,12.70
2019-05-20T19:51:48.585Z,12.70
2019-05-20T19:54:18.015Z,12.70
2019-05-20T19:56:47.340Z,12.70
2019-05-20T19:59:16.804Z,12.70
2019-05-20T20:01:46.266Z,12.70
2019-05-20T20:04:15.670Z,12.70
2019-05-20T20:06:45.104Z,12.70
2019-05-20T20:09:14.557Z,12.70
2019-05-20T20:11:44.019Z,12.70
2019-05-20T20:14:16.515Z,12.70
2019-05-20T20:16:46.061Z,12.70
2019-05-20T20:19:15.447Z,12.70
2019-05-20T20:21:44.885Z,12.70
2019-05-20T20:24:14.321Z,12.70
2019-05-20T20:26:43.657Z,12.70
2019-05-20T20:29:13.091Z,12.70
2019-05-20T20:31:42.589Z,12.70
2019-05-20T20:34:12.063Z,12.70
2019-05-20T20:36:41.577Z,12.70
2019-05-20T20:39:11.058Z,12.70
2019-05-20T20:41:40.570Z,12.70
2019-05-20T20:44:11.847Z,12.70
2019-05-20T20:46:41.302Z,12.70
2019-05-20T20:49:10.674Z,12.70
2019-05-20T20:51:40.099Z,12.60
2019-05-20T20:54:09.529Z,12.60
2019-05-20T20:56:38.969Z,12.60
2019-05-20T20:59:08.354Z,12.60
2019-05-20T21:01:37.884Z,12.60
2019-05-20T21:04:07.421Z,12.60
2019-05-20T21:06:36.881Z,12.60
2019-05-20T21:09:06.983Z,12.60
2019-05-20T21:11:36.511Z,12.60
2019-05-20T21:14:07.196Z,12.60
2019-05-20T21:16:36.651Z,12.50
2019-05-20T21:19:06.259Z,12.50
2019-05-20T21:21:35.614Z,12.50
2019-05-20T21:24:05.038Z,12.50
2019-05-20T21:26:34.479Z,12.50
2019-05-20T21:29:03.869Z,12.50
2019-05-20T21:31:33.336Z,12.50
2019-05-20T21:34:02.786Z,12.50
2019-05-20T21:36:46.609Z,12.40
2019-05-20T21:39:04.001Z,12.50
2019-05-20T21:41:33.498Z,12.50
2019-05-20T21:44:02.963Z,12.50
2019-05-20T21:46:32.436Z,12.40
2019-05-20T21:49:01.924Z,12.40
2019-05-20T21:51:31.400Z,12.40
2019-05-20T21:54:00.788Z,12.40
2019-05-20T21:56:30.266Z,12.40
2019-05-20T21:58:59.742Z,12.40
2019-05-20T22:01:29.141Z,12.50
2019-05-20T22:03:58.596Z,12.40
2019-05-20T22:06:27.961Z,12.40
2019-05-20T22:08:57.401Z,12.40
2019-05-20T22:11:26.841Z,12.40
2019-05-20T22:13:56.348Z,12.40
2019-05-20T22:16:29.578Z,12.40
2019-05-20T22:18:57.094Z,12.40
2019-05-20T22:21:30.467Z,12.40
2019-05-20T22:24:02.595Z,12.30
2019-05-20T22:26:32.114Z,12.40
2019-05-20T22:29:01.543Z,12.40
2019-05-20T22:31:30.936Z,12.40
2019-05-20T22:34:00.346Z,12.40
2019-05-20T22:36:29.817Z,12.30
2019-05-20T22:38:59.190Z,12.40
2019-05-20T22:41:28.600Z,12.40
2019-05-20T22:43:58.061Z,12.40
2019-05-20T22:46:27.516Z,12.40
2019-05-20T22:48:56.978Z,12.40
2019-05-20T22:51:26.360Z,12.40
2019-05-20T22:53:55.693Z,12.40
2019-05-20T22:56:25.099Z,12.40
2019-05-20T22:58:54.530Z,12.40
2019-05-20T23:01:23.986Z,12.40
2019-05-20T23:03:56.485Z,12.40
2019-05-20T23:06:24.533Z,12.40
2019-05-20T23:08:53.922Z,12.40
2019-05-20T23:11:23.366Z,12.40
2019-05-20T23:13:52.818Z,12.40
2019-05-20T23:16:22.183Z,12.40
2019-05-20T23:18:51.642Z,12.40
2019-05-20T23:21:21.028Z,12.50
2019-05-20T23:23:50.408Z,12.40
2019-05-20T23:26:19.888Z,12.40
2019-05-20T23:28:49.290Z,12.40
2019-05-20T23:31:18.612Z,12.40
2019-05-20T23:33:48.110Z,12.40
2019-05-20T23:36:17.492Z,12.40
2019-05-20T23:38:47.058Z,12.40
2019-05-20T23:41:16.520Z,12.40
2019-05-20T23:43:45.974Z,12.40
2019-05-20T23:46:15.310Z,12.40
2019-05-20T23:48:44.782Z,12.40
2019-05-20T23:51:14.220Z,12.40
2019-05-20T23:53:43.663Z,12.40
2019-05-20T23:56:13.032Z,12.40
2019-05-20T23:58:42.482Z,12.40
